logo tempoitalia

Diretta Meteo Midland, Stati Uniti (USA)lunedì 31 agosto ore 00:53

Mappa
Sereno 29 °C Sereno 24 Ore: T.min 23 T.max 36
Ponente Sud Km/h 20.3 Punto di rugiada: 14 °C Umidità: 39% Visibilità: 10 Km
Il sole sorge alle: 07:23 Il sole tramonta alle: 20:14
31 Agosto 2026 00:53 tempo osservato: Sereno Sereno 29 39 1016 vento: Nord S 20.3
30 Agosto 2026 23:53 tempo osservato: Sereno Sereno 29 37 1016 vento: Nord S/SE 20.3
30 Agosto 2026 22:53 tempo osservato: Sereno Sereno 30 35 1016 vento: Nord SE 16.7
30 Agosto 2026 21:53 tempo osservato: Sereno Sereno 32 29 1015 vento: Nord SE 20.3
30 Agosto 2026 20:53 tempo osservato: Sereno Sereno 33 27 1014 vento: Nord SE 20.3
30 Agosto 2026 19:53 tempo osservato: Sereno Sereno 35 23 1014 vento: Nord SE 20.3
30 Agosto 2026 18:53 tempo osservato: Sereno Sereno 36 23 1013 vento: Nord SE 24
30 Agosto 2026 17:53 tempo osservato: Sereno Sereno 36 23 1014 vento: Nord S 18.5
30 Agosto 2026 16:53 tempo osservato: Sereno Sereno 36 25 1014 vento: Nord E/SE 22.2
30 Agosto 2026 15:53 tempo osservato: Sereno Sereno 36 25 1015 vento: Nord E/SE 20.3
30 Agosto 2026 14:53 tempo osservato: Poco Nuvoloso Poco Nuvoloso 36 26 1016 vento: Nord N 11.1
30 Agosto 2026 13:53 tempo osservato: Sereno Sereno 34 32 1016 vento: Nord SE 11.1
30 Agosto 2026 12:53 tempo osservato: Sereno Sereno 33 36 1017 vento: Nord S 22.2
30 Agosto 2026 11:53 tempo osservato: Sereno Sereno 32 40 1018 vento: Nord S/SE 25.9
30 Agosto 2026 10:53 tempo osservato: Sereno Sereno 30 45 1018 vento: Nord S 24
30 Agosto 2026 09:53 tempo osservato: Sereno Sereno 28 54 1018 vento: Nord S 25.9
30 Agosto 2026 08:53 tempo osservato: Sereno Sereno 25 61 1018 vento: Nord S/SE 20.3
30 Agosto 2026 07:53 tempo osservato: Sereno Sereno 24 64 1018 vento: Nord S/SE 14.8
30 Agosto 2026 06:53 tempo osservato: Sereno Sereno 23 64 1017 vento: Nord S/SE 11.1
30 Agosto 2026 05:53 tempo osservato: Sereno Sereno 26 54 1017 vento: Nord S/SE 14.8
30 Agosto 2026 04:53 tempo osservato: Sereno Sereno 27 50 1017 vento: Nord S 18.5
30 Agosto 2026 03:53 tempo osservato: Sereno Sereno 27 47 1017 vento: Nord S 18.5
30 Agosto 2026 02:53 tempo osservato: Sereno Sereno 28 45 1017 vento: Nord S 24
30 Agosto 2026 01:53 tempo osservato: Sereno Sereno 29 42 1017 vento: Nord S 20.3